<?xml version="1.0" encoding="UTF-8" standalone="no" ?>
<gpx xmlns="http://www.topografix.com/GPX/1/1" xmlns:xsi="http://www.w3.org/2001/XMLSchema-instance" xsi:schemaLocation="http://www.topografix.com/GPX/1/1 http://www.topografix.com/GPX/1/1/gpx.xsd" version="1.1" creator="VisuGPX - https://www.visugpx.com">
  <metadata>
    <name>Cime de la Jasse</name>
    <desc><![CDATA[Cime de la jasse avec oliv et papa]]></desc>
  </metadata>
  <trk>
    <name><![CDATA[2012-12-24 09:12]]></name>
    <desc><![CDATA[<h1>OruxMaps</h1><br /><hr align="center" width="480" style="height: 2px; width: 517px"/><h2>Nom: 2012-12-24 09:12</h2><br /><p>Temps de départ: 12/24/2012 09:12</p><p>Temps d'arrivée: 12/24/2012 11:33</p><p>Distance: 5,1 km (02:20)</p><p>Temps déplacement: 01:22</p><p>Vitesse moyenne: 2,2 km/h</p><p>Vitesse moyenne: 3,7 km/h</p><p>Vitess Max.: 6,6 km/h</p><p>Altitude minimale: 1405 m</p><p>Altitude maximale: 2514 m</p><p>Vitesse d'élévation: 487 m/h</p><p>Vitesse de descente: -393,8 m/h</p><p>Gain Altitude: 1058 m</p><p>Perte Altitude: -15 m</p><p>Temps d'élévation: 02:10</p><p>Temps de descente: 00:02</p><hr align="center" width="480" style="height: 2px; width: 517px"/>]]></desc>
    <trkseg>
      <trkpt lat="45.22532" lon="5.99771">
        <ele>1372</ele>
        <time>2012-12-24T08:13:40Z</time>
      </trkpt>
      <trkpt lat="45.22538" lon="5.99799">
        <ele>1376</ele>
        <time>2012-12-24T08:14:32Z</time>
      </trkpt>
      <trkpt lat="45.22528" lon="5.99821">
        <ele>1374</ele>
        <time>2012-12-24T08:14:45Z</time>
      </trkpt>
      <trkpt lat="45.22526" lon="5.99847">
        <ele>1382</ele>
        <time>2012-12-24T08:15:01Z</time>
      </trkpt>
      <trkpt lat="45.22521" lon="5.99872">
        <ele>1385</ele>
        <time>2012-12-24T08:15:19Z</time>
      </trkpt>
      <trkpt lat="45.22522" lon="5.99899">
        <ele>1387</ele>
        <time>2012-12-24T08:15:44Z</time>
      </trkpt>
      <trkpt lat="45.22524" lon="5.99925">
        <ele>1397</ele>
        <time>2012-12-24T08:16:05Z</time>
      </trkpt>
      <trkpt lat="45.22519" lon="5.99953">
        <ele>1401</ele>
        <time>2012-12-24T08:16:21Z</time>
      </trkpt>
      <trkpt lat="45.22514" lon="5.99982">
        <ele>1401</ele>
        <time>2012-12-24T08:16:43Z</time>
      </trkpt>
      <trkpt lat="45.22502" lon="6.00001">
        <ele>1395</ele>
        <time>2012-12-24T08:17:04Z</time>
      </trkpt>
      <trkpt lat="45.22485" lon="6.00016">
        <ele>1394</ele>
        <time>2012-12-24T08:18:02Z</time>
      </trkpt>
      <trkpt lat="45.22472" lon="6.00034">
        <ele>1396</ele>
        <time>2012-12-24T08:18:07Z</time>
      </trkpt>
      <trkpt lat="45.22459" lon="6.00055">
        <ele>1397</ele>
        <time>2012-12-24T08:19:36Z</time>
      </trkpt>
      <trkpt lat="45.22442" lon="6.00071">
        <ele>1395</ele>
        <time>2012-12-24T08:19:44Z</time>
      </trkpt>
      <trkpt lat="45.22426" lon="6.00091">
        <ele>1401</ele>
        <time>2012-12-24T08:20:12Z</time>
      </trkpt>
      <trkpt lat="45.22415" lon="6.00114">
        <ele>1403</ele>
        <time>2012-12-24T08:20:20Z</time>
      </trkpt>
      <trkpt lat="45.22398" lon="6.00126">
        <ele>1406</ele>
        <time>2012-12-24T08:20:39Z</time>
      </trkpt>
      <trkpt lat="45.2238" lon="6.00127">
        <ele>1406</ele>
        <time>2012-12-24T08:20:54Z</time>
      </trkpt>
      <trkpt lat="45.22362" lon="6.00139">
        <ele>1407</ele>
        <time>2012-12-24T08:21:28Z</time>
      </trkpt>
      <trkpt lat="45.2235" lon="6.00161">
        <ele>1409</ele>
        <time>2012-12-24T08:24:00Z</time>
      </trkpt>
      <trkpt lat="45.22339" lon="6.00185">
        <ele>1416</ele>
        <time>2012-12-24T08:24:07Z</time>
      </trkpt>
      <trkpt lat="45.22321" lon="6.00195">
        <ele>1424</ele>
        <time>2012-12-24T08:24:18Z</time>
      </trkpt>
      <trkpt lat="45.22308" lon="6.00214">
        <ele>1428</ele>
        <time>2012-12-24T08:25:14Z</time>
      </trkpt>
      <trkpt lat="45.22301" lon="6.00238">
        <ele>1429</ele>
        <time>2012-12-24T08:25:28Z</time>
      </trkpt>
      <trkpt lat="45.2231" lon="6.00262">
        <ele>1433</ele>
        <time>2012-12-24T08:26:01Z</time>
      </trkpt>
      <trkpt lat="45.22314" lon="6.00292">
        <ele>1436</ele>
        <time>2012-12-24T08:26:14Z</time>
      </trkpt>
      <trkpt lat="45.22308" lon="6.00322">
        <ele>1437</ele>
        <time>2012-12-24T08:26:53Z</time>
      </trkpt>
      <trkpt lat="45.22305" lon="6.00348">
        <ele>1446</ele>
        <time>2012-12-24T08:27:09Z</time>
      </trkpt>
      <trkpt lat="45.22299" lon="6.00373">
        <ele>1449</ele>
        <time>2012-12-24T08:27:50Z</time>
      </trkpt>
      <trkpt lat="45.22286" lon="6.00393">
        <ele>1452</ele>
        <time>2012-12-24T08:28:17Z</time>
      </trkpt>
      <trkpt lat="45.22274" lon="6.00412">
        <ele>1455</ele>
        <time>2012-12-24T08:28:54Z</time>
      </trkpt>
      <trkpt lat="45.22255" lon="6.00431">
        <ele>1467</ele>
        <time>2012-12-24T08:29:29Z</time>
      </trkpt>
      <trkpt lat="45.22237" lon="6.00438">
        <ele>1480</ele>
        <time>2012-12-24T08:29:43Z</time>
      </trkpt>
      <trkpt lat="45.22229" lon="6.00463">
        <ele>1487</ele>
        <time>2012-12-24T08:31:01Z</time>
      </trkpt>
      <trkpt lat="45.2222" lon="6.00489">
        <ele>1490</ele>
        <time>2012-12-24T08:31:34Z</time>
      </trkpt>
      <trkpt lat="45.22218" lon="6.00515">
        <ele>1503</ele>
        <time>2012-12-24T08:32:24Z</time>
      </trkpt>
      <trkpt lat="45.22215" lon="6.00541">
        <ele>1507</ele>
        <time>2012-12-24T08:32:34Z</time>
      </trkpt>
      <trkpt lat="45.22224" lon="6.00565">
        <ele>1508</ele>
        <time>2012-12-24T08:32:51Z</time>
      </trkpt>
      <trkpt lat="45.22227" lon="6.00591">
        <ele>1520</ele>
        <time>2012-12-24T08:33:30Z</time>
      </trkpt>
      <trkpt lat="45.22229" lon="6.00616">
        <ele>1523</ele>
        <time>2012-12-24T08:33:56Z</time>
      </trkpt>
      <trkpt lat="45.22239" lon="6.00639">
        <ele>1526</ele>
        <time>2012-12-24T08:36:48Z</time>
      </trkpt>
      <trkpt lat="45.22233" lon="6.00665">
        <ele>1528</ele>
        <time>2012-12-24T08:37:22Z</time>
      </trkpt>
      <trkpt lat="45.22234" lon="6.0069">
        <ele>1539</ele>
        <time>2012-12-24T08:38:41Z</time>
      </trkpt>
      <trkpt lat="45.22238" lon="6.00716">
        <ele>1542</ele>
        <time>2012-12-24T08:38:53Z</time>
      </trkpt>
      <trkpt lat="45.22232" lon="6.00744">
        <ele>1545</ele>
        <time>2012-12-24T08:39:33Z</time>
      </trkpt>
      <trkpt lat="45.22227" lon="6.00769">
        <ele>1556</ele>
        <time>2012-12-24T08:39:51Z</time>
      </trkpt>
      <trkpt lat="45.2222" lon="6.00796">
        <ele>1560</ele>
        <time>2012-12-24T08:40:30Z</time>
      </trkpt>
      <trkpt lat="45.22224" lon="6.00821">
        <ele>1562</ele>
        <time>2012-12-24T08:41:44Z</time>
      </trkpt>
      <trkpt lat="45.2223" lon="6.00846">
        <ele>1573</ele>
        <time>2012-12-24T08:42:09Z</time>
      </trkpt>
      <trkpt lat="45.22242" lon="6.00866">
        <ele>1575</ele>
        <time>2012-12-24T08:42:34Z</time>
      </trkpt>
      <trkpt lat="45.22248" lon="6.0089">
        <ele>1579</ele>
        <time>2012-12-24T08:43:10Z</time>
      </trkpt>
      <trkpt lat="45.22259" lon="6.00914">
        <ele>1585</ele>
        <time>2012-12-24T08:43:28Z</time>
      </trkpt>
      <trkpt lat="45.22241" lon="6.00926">
        <ele>1588</ele>
        <time>2012-12-24T08:43:54Z</time>
      </trkpt>
      <trkpt lat="45.22228" lon="6.00946">
        <ele>1593</ele>
        <time>2012-12-24T08:44:32Z</time>
      </trkpt>
      <trkpt lat="45.22228" lon="6.00971">
        <ele>1595</ele>
        <time>2012-12-24T08:45:00Z</time>
      </trkpt>
      <trkpt lat="45.22227" lon="6.00997">
        <ele>1597</ele>
        <time>2012-12-24T08:45:37Z</time>
      </trkpt>
      <trkpt lat="45.22231" lon="6.01022">
        <ele>1605</ele>
        <time>2012-12-24T08:45:51Z</time>
      </trkpt>
      <trkpt lat="45.22229" lon="6.01048">
        <ele>1608</ele>
        <time>2012-12-24T08:46:20Z</time>
      </trkpt>
      <trkpt lat="45.22232" lon="6.01075">
        <ele>1611</ele>
        <time>2012-12-24T08:47:00Z</time>
      </trkpt>
      <trkpt lat="45.22233" lon="6.01101">
        <ele>1617</ele>
        <time>2012-12-24T08:47:20Z</time>
      </trkpt>
      <trkpt lat="45.22232" lon="6.01129">
        <ele>1619</ele>
        <time>2012-12-24T08:47:43Z</time>
      </trkpt>
      <trkpt lat="45.22237" lon="6.01154">
        <ele>1622</ele>
        <time>2012-12-24T08:48:14Z</time>
      </trkpt>
      <trkpt lat="45.22238" lon="6.01181">
        <ele>1629</ele>
        <time>2012-12-24T08:48:48Z</time>
      </trkpt>
      <trkpt lat="45.22234" lon="6.01206">
        <ele>1632</ele>
        <time>2012-12-24T08:49:21Z</time>
      </trkpt>
      <trkpt lat="45.22239" lon="6.01232">
        <ele>1636</ele>
        <time>2012-12-24T08:50:03Z</time>
      </trkpt>
      <trkpt lat="45.22228" lon="6.01255">
        <ele>1645</ele>
        <time>2012-12-24T08:50:32Z</time>
      </trkpt>
      <trkpt lat="45.22225" lon="6.0128">
        <ele>1647</ele>
        <time>2012-12-24T08:50:52Z</time>
      </trkpt>
      <trkpt lat="45.22239" lon="6.01304">
        <ele>1651</ele>
        <time>2012-12-24T08:51:27Z</time>
      </trkpt>
      <trkpt lat="45.22257" lon="6.01309">
        <ele>1663</ele>
        <time>2012-12-24T08:52:06Z</time>
      </trkpt>
      <trkpt lat="45.22275" lon="6.01301">
        <ele>1664</ele>
        <time>2012-12-24T08:52:24Z</time>
      </trkpt>
      <trkpt lat="45.22271" lon="6.01327">
        <ele>1665</ele>
        <time>2012-12-24T08:53:01Z</time>
      </trkpt>
      <trkpt lat="45.22269" lon="6.01352">
        <ele>1677</ele>
        <time>2012-12-24T08:54:06Z</time>
      </trkpt>
      <trkpt lat="45.22254" lon="6.0137">
        <ele>1678</ele>
        <time>2012-12-24T08:54:25Z</time>
      </trkpt>
      <trkpt lat="45.2224" lon="6.01386">
        <ele>1668</ele>
        <time>2012-12-24T08:54:43Z</time>
      </trkpt>
      <trkpt lat="45.22231" lon="6.01409">
        <ele>1670</ele>
        <time>2012-12-24T08:55:04Z</time>
      </trkpt>
      <trkpt lat="45.22222" lon="6.01432">
        <ele>1675</ele>
        <time>2012-12-24T08:55:30Z</time>
      </trkpt>
      <trkpt lat="45.22231" lon="6.01454">
        <ele>1676</ele>
        <time>2012-12-24T08:55:51Z</time>
      </trkpt>
      <trkpt lat="45.22235" lon="6.01482">
        <ele>1679</ele>
        <time>2012-12-24T08:56:14Z</time>
      </trkpt>
      <trkpt lat="45.22238" lon="6.01507">
        <ele>1682</ele>
        <time>2012-12-24T08:56:35Z</time>
      </trkpt>
      <trkpt lat="45.22241" lon="6.0154">
        <ele>1679</ele>
        <time>2012-12-24T08:56:53Z</time>
      </trkpt>
      <trkpt lat="45.22244" lon="6.01568">
        <ele>1679</ele>
        <time>2012-12-24T08:57:10Z</time>
      </trkpt>
      <trkpt lat="45.22244" lon="6.01594">
        <ele>1678</ele>
        <time>2012-12-24T08:57:24Z</time>
      </trkpt>
      <trkpt lat="45.22247" lon="6.01622">
        <ele>1674</ele>
        <time>2012-12-24T08:57:45Z</time>
      </trkpt>
      <trkpt lat="45.22251" lon="6.01648">
        <ele>1688</ele>
        <time>2012-12-24T08:58:11Z</time>
      </trkpt>
      <trkpt lat="45.22253" lon="6.01675">
        <ele>1682</ele>
        <time>2012-12-24T08:58:24Z</time>
      </trkpt>
      <trkpt lat="45.22255" lon="6.01702">
        <ele>1690</ele>
        <time>2012-12-24T08:58:42Z</time>
      </trkpt>
      <trkpt lat="45.22253" lon="6.01728">
        <ele>1689</ele>
        <time>2012-12-24T08:58:55Z</time>
      </trkpt>
      <trkpt lat="45.22249" lon="6.01754">
        <ele>1681</ele>
        <time>2012-12-24T08:59:13Z</time>
      </trkpt>
      <trkpt lat="45.22255" lon="6.01778">
        <ele>1695</ele>
        <time>2012-12-24T08:59:38Z</time>
      </trkpt>
      <trkpt lat="45.22259" lon="6.01804">
        <ele>1698</ele>
        <time>2012-12-24T09:00:03Z</time>
      </trkpt>
      <trkpt lat="45.22244" lon="6.01828">
        <ele>1688</ele>
        <time>2012-12-24T09:01:13Z</time>
      </trkpt>
      <trkpt lat="45.22238" lon="6.01854">
        <ele>1692</ele>
        <time>2012-12-24T09:01:26Z</time>
      </trkpt>
      <trkpt lat="45.22238" lon="6.01882">
        <ele>1693</ele>
        <time>2012-12-24T09:01:49Z</time>
      </trkpt>
      <trkpt lat="45.22238" lon="6.01908">
        <ele>1695</ele>
        <time>2012-12-24T09:02:25Z</time>
      </trkpt>
      <trkpt lat="45.22241" lon="6.01936">
        <ele>1700</ele>
        <time>2012-12-24T09:02:44Z</time>
      </trkpt>
      <trkpt lat="45.22242" lon="6.01962">
        <ele>1702</ele>
        <time>2012-12-24T09:02:59Z</time>
      </trkpt>
      <trkpt lat="45.22244" lon="6.01992">
        <ele>1706</ele>
        <time>2012-12-24T09:03:23Z</time>
      </trkpt>
      <trkpt lat="45.22244" lon="6.02018">
        <ele>1712</ele>
        <time>2012-12-24T09:03:39Z</time>
      </trkpt>
      <trkpt lat="45.22238" lon="6.02043">
        <ele>1714</ele>
        <time>2012-12-24T09:04:04Z</time>
      </trkpt>
      <trkpt lat="45.22239" lon="6.02071">
        <ele>1717</ele>
        <time>2012-12-24T09:04:28Z</time>
      </trkpt>
      <trkpt lat="45.22251" lon="6.02092">
        <ele>1723</ele>
        <time>2012-12-24T09:04:47Z</time>
      </trkpt>
      <trkpt lat="45.2226" lon="6.02114">
        <ele>1729</ele>
        <time>2012-12-24T09:08:22Z</time>
      </trkpt>
      <trkpt lat="45.22257" lon="6.0214">
        <ele>1731</ele>
        <time>2012-12-24T09:08:36Z</time>
      </trkpt>
      <trkpt lat="45.22255" lon="6.02166">
        <ele>1730</ele>
        <time>2012-12-24T09:08:50Z</time>
      </trkpt>
      <trkpt lat="45.22243" lon="6.02191">
        <ele>1736</ele>
        <time>2012-12-24T09:09:14Z</time>
      </trkpt>
      <trkpt lat="45.22238" lon="6.02215">
        <ele>1739</ele>
        <time>2012-12-24T09:09:36Z</time>
      </trkpt>
      <trkpt lat="45.22233" lon="6.02241">
        <ele>1740</ele>
        <time>2012-12-24T09:10:08Z</time>
      </trkpt>
      <trkpt lat="45.22232" lon="6.02267">
        <ele>1745</ele>
        <time>2012-12-24T09:10:29Z</time>
      </trkpt>
      <trkpt lat="45.22234" lon="6.02293">
        <ele>1747</ele>
        <time>2012-12-24T09:10:58Z</time>
      </trkpt>
      <trkpt lat="45.22249" lon="6.02309">
        <ele>1748</ele>
        <time>2012-12-24T09:11:28Z</time>
      </trkpt>
      <trkpt lat="45.22268" lon="6.02306">
        <ele>1752</ele>
        <time>2012-12-24T09:11:52Z</time>
      </trkpt>
      <trkpt lat="45.22279" lon="6.02327">
        <ele>1753</ele>
        <time>2012-12-24T09:12:18Z</time>
      </trkpt>
      <trkpt lat="45.22278" lon="6.02353">
        <ele>1763</ele>
        <time>2012-12-24T09:12:48Z</time>
      </trkpt>
      <trkpt lat="45.22293" lon="6.02371">
        <ele>1766</ele>
        <time>2012-12-24T09:13:43Z</time>
      </trkpt>
      <trkpt lat="45.22311" lon="6.0237">
        <ele>1768</ele>
        <time>2012-12-24T09:13:52Z</time>
      </trkpt>
      <trkpt lat="45.22329" lon="6.02375">
        <ele>1770</ele>
        <time>2012-12-24T09:14:20Z</time>
      </trkpt>
      <trkpt lat="45.22348" lon="6.02383">
        <ele>1784</ele>
        <time>2012-12-24T09:15:02Z</time>
      </trkpt>
      <trkpt lat="45.22364" lon="6.02393">
        <ele>1786</ele>
        <time>2012-12-24T09:15:29Z</time>
      </trkpt>
      <trkpt lat="45.22374" lon="6.02414">
        <ele>1789</ele>
        <time>2012-12-24T09:15:59Z</time>
      </trkpt>
      <trkpt lat="45.2238" lon="6.0244">
        <ele>1798</ele>
        <time>2012-12-24T09:16:39Z</time>
      </trkpt>
      <trkpt lat="45.22398" lon="6.02446">
        <ele>1800</ele>
        <time>2012-12-24T09:17:57Z</time>
      </trkpt>
      <trkpt lat="45.22413" lon="6.02462">
        <ele>1803</ele>
        <time>2012-12-24T09:18:34Z</time>
      </trkpt>
      <trkpt lat="45.2241" lon="6.02487">
        <ele>1808</ele>
        <time>2012-12-24T09:19:56Z</time>
      </trkpt>
      <trkpt lat="45.22409" lon="6.02514">
        <ele>1818</ele>
        <time>2012-12-24T09:20:15Z</time>
      </trkpt>
      <trkpt lat="45.22422" lon="6.02531">
        <ele>1830</ele>
        <time>2012-12-24T09:21:06Z</time>
      </trkpt>
      <trkpt lat="45.2244" lon="6.02527">
        <ele>1831</ele>
        <time>2012-12-24T09:21:31Z</time>
      </trkpt>
      <trkpt lat="45.2246" lon="6.02516">
        <ele>1833</ele>
        <time>2012-12-24T09:21:53Z</time>
      </trkpt>
      <trkpt lat="45.22474" lon="6.02498">
        <ele>1827</ele>
        <time>2012-12-24T09:22:41Z</time>
      </trkpt>
      <trkpt lat="45.2249" lon="6.02483">
        <ele>1829</ele>
        <time>2012-12-24T09:22:57Z</time>
      </trkpt>
      <trkpt lat="45.2251" lon="6.02484">
        <ele>1842</ele>
        <time>2012-12-24T09:23:39Z</time>
      </trkpt>
      <trkpt lat="45.22525" lon="6.02499">
        <ele>1844</ele>
        <time>2012-12-24T09:24:02Z</time>
      </trkpt>
      <trkpt lat="45.22541" lon="6.02513">
        <ele>1851</ele>
        <time>2012-12-24T09:25:00Z</time>
      </trkpt>
      <trkpt lat="45.22558" lon="6.02527">
        <ele>1853</ele>
        <time>2012-12-24T09:25:18Z</time>
      </trkpt>
      <trkpt lat="45.22575" lon="6.02541">
        <ele>1855</ele>
        <time>2012-12-24T09:25:52Z</time>
      </trkpt>
      <trkpt lat="45.22591" lon="6.02552">
        <ele>1867</ele>
        <time>2012-12-24T09:26:12Z</time>
      </trkpt>
      <trkpt lat="45.22598" lon="6.02577">
        <ele>1867</ele>
        <time>2012-12-24T09:26:43Z</time>
      </trkpt>
      <trkpt lat="45.22602" lon="6.02603">
        <ele>1872</ele>
        <time>2012-12-24T09:27:03Z</time>
      </trkpt>
      <trkpt lat="45.2262" lon="6.02598">
        <ele>1874</ele>
        <time>2012-12-24T09:27:23Z</time>
      </trkpt>
      <trkpt lat="45.22642" lon="6.02587">
        <ele>1876</ele>
        <time>2012-12-24T09:27:40Z</time>
      </trkpt>
      <trkpt lat="45.22661" lon="6.02588">
        <ele>1878</ele>
        <time>2012-12-24T09:28:36Z</time>
      </trkpt>
      <trkpt lat="45.2268" lon="6.02592">
        <ele>1884</ele>
        <time>2012-12-24T09:28:45Z</time>
      </trkpt>
      <trkpt lat="45.22698" lon="6.02589">
        <ele>1887</ele>
        <time>2012-12-24T09:28:58Z</time>
      </trkpt>
      <trkpt lat="45.22717" lon="6.02594">
        <ele>1891</ele>
        <time>2012-12-24T09:29:15Z</time>
      </trkpt>
      <trkpt lat="45.22735" lon="6.02604">
        <ele>1893</ele>
        <time>2012-12-24T09:29:59Z</time>
      </trkpt>
      <trkpt lat="45.22752" lon="6.02614">
        <ele>1908</ele>
        <time>2012-12-24T09:30:07Z</time>
      </trkpt>
      <trkpt lat="45.22771" lon="6.02619">
        <ele>1911</ele>
        <time>2012-12-24T09:30:23Z</time>
      </trkpt>
      <trkpt lat="45.2279" lon="6.0262">
        <ele>1914</ele>
        <time>2012-12-24T09:30:36Z</time>
      </trkpt>
      <trkpt lat="45.22812" lon="6.02625">
        <ele>1918</ele>
        <time>2012-12-24T09:31:34Z</time>
      </trkpt>
      <trkpt lat="45.2283" lon="6.02628">
        <ele>1920</ele>
        <time>2012-12-24T09:31:47Z</time>
      </trkpt>
      <trkpt lat="45.22848" lon="6.02636">
        <ele>1944</ele>
        <time>2012-12-24T09:32:00Z</time>
      </trkpt>
      <trkpt lat="45.22872" lon="6.02641">
        <ele>1949</ele>
        <time>2012-12-24T09:33:18Z</time>
      </trkpt>
      <trkpt lat="45.22881" lon="6.02663">
        <ele>1951</ele>
        <time>2012-12-24T09:33:41Z</time>
      </trkpt>
      <trkpt lat="45.22899" lon="6.0266">
        <ele>1957</ele>
        <time>2012-12-24T09:34:29Z</time>
      </trkpt>
      <trkpt lat="45.22918" lon="6.02652">
        <ele>1976</ele>
        <time>2012-12-24T09:35:23Z</time>
      </trkpt>
      <trkpt lat="45.22937" lon="6.02647">
        <ele>1983</ele>
        <time>2012-12-24T09:37:21Z</time>
      </trkpt>
      <trkpt lat="45.22948" lon="6.02669">
        <ele>1991</ele>
        <time>2012-12-24T09:38:07Z</time>
      </trkpt>
      <trkpt lat="45.22967" lon="6.02666">
        <ele>1993</ele>
        <time>2012-12-24T09:38:48Z</time>
      </trkpt>
      <trkpt lat="45.2297" lon="6.02693">
        <ele>2001</ele>
        <time>2012-12-24T09:39:23Z</time>
      </trkpt>
      <trkpt lat="45.22981" lon="6.02672">
        <ele>2003</ele>
        <time>2012-12-24T09:39:49Z</time>
      </trkpt>
      <trkpt lat="45.22992" lon="6.02692">
        <ele>2005</ele>
        <time>2012-12-24T09:40:24Z</time>
      </trkpt>
      <trkpt lat="45.2301" lon="6.02686">
        <ele>2028</ele>
        <time>2012-12-24T09:41:12Z</time>
      </trkpt>
      <trkpt lat="45.23006" lon="6.02712">
        <ele>2033</ele>
        <time>2012-12-24T09:41:33Z</time>
      </trkpt>
      <trkpt lat="45.23024" lon="6.02703">
        <ele>2035</ele>
        <time>2012-12-24T09:42:06Z</time>
      </trkpt>
      <trkpt lat="45.23042" lon="6.02709">
        <ele>2040</ele>
        <time>2012-12-24T09:43:04Z</time>
      </trkpt>
      <trkpt lat="45.23057" lon="6.02694">
        <ele>2043</ele>
        <time>2012-12-24T09:43:26Z</time>
      </trkpt>
      <trkpt lat="45.23072" lon="6.02677">
        <ele>2048</ele>
        <time>2012-12-24T09:44:35Z</time>
      </trkpt>
      <trkpt lat="45.23091" lon="6.02676">
        <ele>2065</ele>
        <time>2012-12-24T09:44:53Z</time>
      </trkpt>
      <trkpt lat="45.23106" lon="6.02662">
        <ele>2070</ele>
        <time>2012-12-24T09:45:57Z</time>
      </trkpt>
      <trkpt lat="45.23117" lon="6.02685">
        <ele>2077</ele>
        <time>2012-12-24T09:46:23Z</time>
      </trkpt>
      <trkpt lat="45.23126" lon="6.02707">
        <ele>2081</ele>
        <time>2012-12-24T09:46:49Z</time>
      </trkpt>
      <trkpt lat="45.23126" lon="6.02733">
        <ele>2082</ele>
        <time>2012-12-24T09:47:16Z</time>
      </trkpt>
      <trkpt lat="45.23137" lon="6.02712">
        <ele>2084</ele>
        <time>2012-12-24T09:48:09Z</time>
      </trkpt>
      <trkpt lat="45.23157" lon="6.02715">
        <ele>2088</ele>
        <time>2012-12-24T09:48:43Z</time>
      </trkpt>
      <trkpt lat="45.2317" lon="6.02733">
        <ele>2111</ele>
        <time>2012-12-24T09:49:08Z</time>
      </trkpt>
      <trkpt lat="45.23187" lon="6.02722">
        <ele>2115</ele>
        <time>2012-12-24T09:49:40Z</time>
      </trkpt>
      <trkpt lat="45.23204" lon="6.02711">
        <ele>2118</ele>
        <time>2012-12-24T09:50:01Z</time>
      </trkpt>
      <trkpt lat="45.23213" lon="6.02734">
        <ele>2120</ele>
        <time>2012-12-24T09:50:39Z</time>
      </trkpt>
      <trkpt lat="45.23228" lon="6.02717">
        <ele>2123</ele>
        <time>2012-12-24T09:51:07Z</time>
      </trkpt>
      <trkpt lat="45.23241" lon="6.02734">
        <ele>2127</ele>
        <time>2012-12-24T09:51:37Z</time>
      </trkpt>
      <trkpt lat="45.23255" lon="6.0275">
        <ele>2138</ele>
        <time>2012-12-24T09:52:39Z</time>
      </trkpt>
      <trkpt lat="45.23272" lon="6.0276">
        <ele>2144</ele>
        <time>2012-12-24T09:53:19Z</time>
      </trkpt>
      <trkpt lat="45.23287" lon="6.02775">
        <ele>2147</ele>
        <time>2012-12-24T09:53:54Z</time>
      </trkpt>
      <trkpt lat="45.23306" lon="6.0278">
        <ele>2150</ele>
        <time>2012-12-24T09:54:20Z</time>
      </trkpt>
      <trkpt lat="45.23324" lon="6.02785">
        <ele>2152</ele>
        <time>2012-12-24T10:06:03Z</time>
      </trkpt>
      <trkpt lat="45.23343" lon="6.02799">
        <ele>2162</ele>
        <time>2012-12-24T10:06:15Z</time>
      </trkpt>
      <trkpt lat="45.23356" lon="6.02816">
        <ele>2162</ele>
        <time>2012-12-24T10:06:34Z</time>
      </trkpt>
      <trkpt lat="45.23372" lon="6.02832">
        <ele>2163</ele>
        <time>2012-12-24T10:06:45Z</time>
      </trkpt>
      <trkpt lat="45.23388" lon="6.02846">
        <ele>2161</ele>
        <time>2012-12-24T10:07:02Z</time>
      </trkpt>
      <trkpt lat="45.23404" lon="6.02859">
        <ele>2161</ele>
        <time>2012-12-24T10:07:13Z</time>
      </trkpt>
      <trkpt lat="45.23422" lon="6.02869">
        <ele>2167</ele>
        <time>2012-12-24T10:07:26Z</time>
      </trkpt>
      <trkpt lat="45.23439" lon="6.02882">
        <ele>2167</ele>
        <time>2012-12-24T10:07:39Z</time>
      </trkpt>
      <trkpt lat="45.23456" lon="6.02891">
        <ele>2167</ele>
        <time>2012-12-24T10:07:53Z</time>
      </trkpt>
      <trkpt lat="45.23473" lon="6.02902">
        <ele>2167</ele>
        <time>2012-12-24T10:08:09Z</time>
      </trkpt>
      <trkpt lat="45.23492" lon="6.02912">
        <ele>2167</ele>
        <time>2012-12-24T10:08:25Z</time>
      </trkpt>
      <trkpt lat="45.23511" lon="6.02919">
        <ele>2170</ele>
        <time>2012-12-24T10:08:44Z</time>
      </trkpt>
      <trkpt lat="45.23528" lon="6.02927">
        <ele>2174</ele>
        <time>2012-12-24T10:08:58Z</time>
      </trkpt>
      <trkpt lat="45.23547" lon="6.02937">
        <ele>2177</ele>
        <time>2012-12-24T10:09:17Z</time>
      </trkpt>
      <trkpt lat="45.23565" lon="6.02943">
        <ele>2180</ele>
        <time>2012-12-24T10:09:30Z</time>
      </trkpt>
      <trkpt lat="45.23578" lon="6.02962">
        <ele>2179</ele>
        <time>2012-12-24T10:09:47Z</time>
      </trkpt>
      <trkpt lat="45.23593" lon="6.02978">
        <ele>2196</ele>
        <time>2012-12-24T10:10:05Z</time>
      </trkpt>
      <trkpt lat="45.2361" lon="6.02988">
        <ele>2199</ele>
        <time>2012-12-24T10:10:18Z</time>
      </trkpt>
      <trkpt lat="45.23628" lon="6.02993">
        <ele>2204</ele>
        <time>2012-12-24T10:10:32Z</time>
      </trkpt>
      <trkpt lat="45.23644" lon="6.03006">
        <ele>2202</ele>
        <time>2012-12-24T10:10:50Z</time>
      </trkpt>
      <trkpt lat="45.2366" lon="6.03017">
        <ele>2205</ele>
        <time>2012-12-24T10:11:06Z</time>
      </trkpt>
      <trkpt lat="45.23675" lon="6.03034">
        <ele>2226</ele>
        <time>2012-12-24T10:11:24Z</time>
      </trkpt>
      <trkpt lat="45.2369" lon="6.03048">
        <ele>2228</ele>
        <time>2012-12-24T10:11:45Z</time>
      </trkpt>
      <trkpt lat="45.23702" lon="6.03069">
        <ele>2229</ele>
        <time>2012-12-24T10:12:09Z</time>
      </trkpt>
      <trkpt lat="45.23704" lon="6.03094">
        <ele>2229</ele>
        <time>2012-12-24T10:12:50Z</time>
      </trkpt>
      <trkpt lat="45.2371" lon="6.03119">
        <ele>2232</ele>
        <time>2012-12-24T10:13:11Z</time>
      </trkpt>
      <trkpt lat="45.23717" lon="6.03143">
        <ele>2235</ele>
        <time>2012-12-24T10:13:31Z</time>
      </trkpt>
      <trkpt lat="45.23727" lon="6.03168">
        <ele>2244</ele>
        <time>2012-12-24T10:14:03Z</time>
      </trkpt>
      <trkpt lat="45.23747" lon="6.03168">
        <ele>2253</ele>
        <time>2012-12-24T10:14:29Z</time>
      </trkpt>
      <trkpt lat="45.23765" lon="6.03168">
        <ele>2266</ele>
        <time>2012-12-24T10:15:14Z</time>
      </trkpt>
      <trkpt lat="45.23775" lon="6.03191">
        <ele>2273</ele>
        <time>2012-12-24T10:15:40Z</time>
      </trkpt>
      <trkpt lat="45.23789" lon="6.03209">
        <ele>2277</ele>
        <time>2012-12-24T10:16:03Z</time>
      </trkpt>
      <trkpt lat="45.23804" lon="6.03222">
        <ele>2280</ele>
        <time>2012-12-24T10:16:29Z</time>
      </trkpt>
      <trkpt lat="45.23821" lon="6.03231">
        <ele>2285</ele>
        <time>2012-12-24T10:16:58Z</time>
      </trkpt>
      <trkpt lat="45.23839" lon="6.03238">
        <ele>2305</ele>
        <time>2012-12-24T10:17:25Z</time>
      </trkpt>
      <trkpt lat="45.23853" lon="6.03256">
        <ele>2307</ele>
        <time>2012-12-24T10:17:44Z</time>
      </trkpt>
      <trkpt lat="45.23867" lon="6.03275">
        <ele>2314</ele>
        <time>2012-12-24T10:18:14Z</time>
      </trkpt>
      <trkpt lat="45.23879" lon="6.03295">
        <ele>2317</ele>
        <time>2012-12-24T10:19:10Z</time>
      </trkpt>
      <trkpt lat="45.23895" lon="6.03283">
        <ele>2322</ele>
        <time>2012-12-24T10:19:36Z</time>
      </trkpt>
      <trkpt lat="45.23912" lon="6.03267">
        <ele>2329</ele>
        <time>2012-12-24T10:20:46Z</time>
      </trkpt>
      <trkpt lat="45.23924" lon="6.03246">
        <ele>2349</ele>
        <time>2012-12-24T10:21:53Z</time>
      </trkpt>
      <trkpt lat="45.23942" lon="6.03235">
        <ele>2363</ele>
        <time>2012-12-24T10:22:56Z</time>
      </trkpt>
      <trkpt lat="45.23954" lon="6.03215">
        <ele>2370</ele>
        <time>2012-12-24T10:23:29Z</time>
      </trkpt>
      <trkpt lat="45.23968" lon="6.03231">
        <ele>2375</ele>
        <time>2012-12-24T10:24:43Z</time>
      </trkpt>
      <trkpt lat="45.23985" lon="6.03221">
        <ele>2379</ele>
        <time>2012-12-24T10:25:29Z</time>
      </trkpt>
      <trkpt lat="45.23993" lon="6.03244">
        <ele>2388</ele>
        <time>2012-12-24T10:26:07Z</time>
      </trkpt>
      <trkpt lat="45.24004" lon="6.03223">
        <ele>2405</ele>
        <time>2012-12-24T10:26:30Z</time>
      </trkpt>
      <trkpt lat="45.24016" lon="6.03205">
        <ele>2407</ele>
        <time>2012-12-24T10:26:57Z</time>
      </trkpt>
      <trkpt lat="45.24023" lon="6.03181">
        <ele>2407</ele>
        <time>2012-12-24T10:27:42Z</time>
      </trkpt>
      <trkpt lat="45.2404" lon="6.03192">
        <ele>2410</ele>
        <time>2012-12-24T10:28:37Z</time>
      </trkpt>
      <trkpt lat="45.24054" lon="6.03208">
        <ele>2413</ele>
        <time>2012-12-24T10:29:01Z</time>
      </trkpt>
      <trkpt lat="45.24069" lon="6.03226">
        <ele>2417</ele>
        <time>2012-12-24T10:29:26Z</time>
      </trkpt>
      <trkpt lat="45.24087" lon="6.03231">
        <ele>2427</ele>
        <time>2012-12-24T10:29:53Z</time>
      </trkpt>
      <trkpt lat="45.24101" lon="6.03249">
        <ele>2429</ele>
        <time>2012-12-24T10:30:27Z</time>
      </trkpt>
      <trkpt lat="45.24113" lon="6.03271">
        <ele>2443</ele>
        <time>2012-12-24T10:31:02Z</time>
      </trkpt>
      <trkpt lat="45.24124" lon="6.03292">
        <ele>2445</ele>
        <time>2012-12-24T10:31:28Z</time>
      </trkpt>
      <trkpt lat="45.24141" lon="6.03299">
        <ele>2447</ele>
        <time>2012-12-24T10:32:34Z</time>
      </trkpt>
      <trkpt lat="45.24159" lon="6.0329">
        <ele>2448</ele>
        <time>2012-12-24T10:33:43Z</time>
      </trkpt>
    </trkseg>
  </trk>
</gpx>